Hovedside
METAR-TAF:

METAR-TAF

Lufthavner :

Roskilde lufthavn

Roskilde, Danmark

breddegrad: 55-35N, lengdegrad: 012-08E, høyde over havet: 44 m

Gjeldene værobservasjon

Denne rapporten ble laget for 22 minutter siden, klokken 11:20 UTC
Vind 5 kt fra Sørvest, skiftende mellom Sør og Vest
Temperatur 29°C
Luftfuktighet 55%
Trykk 1012 hPa
Sikt 10 km eller mer

METAR: EKRK 191120Z AUTO 23005KT 190V280 9999 FEW090/// FEW100/// 29/19 Q1012

Tid: 13:42 (11:42 UTC)

Varsel

Denne rapporten ble laget for 24 minutter siden, klokken 11:18 UTC
Varsel gyldig fra 19. klokken 12 UTC til 19. klokken 21 UTC
Vind 10 kt fra Sørvest
Sikt 10 km eller mer
ingen skyer under 1500 m og ingen bygeskyer

TAF: EKRK 191118Z 1912/1921 22010KT CAVOK

Værobservasjoner og værvarsel for over 4000 flyplasser (METAR- og TAF-rapporter).

Tilgjengelige stasjoner er representert av de røde og gule prikkene på kartet.

Hold musepekeren over prikken for å se navnet på stasjonen.

Klikk så for å se værobservasjoner og -varsler.

For å forandre kartet kan du klikke på den grønne knappen med svart kryss for å zoome inn, på den grønne knappen med strek for å zoome ut, eller på de grønne pilene for å se tilstøtende kart.


METAR-TAF: